Time;durP1;ratioP1;P1;durP2;ratioP2;P2;SDS_P1;SDS_P2;PMS_P1;PMS_P2;Temp;Humidity;BMP_temperature;BMP_pressure;BME280_temperature;BME280_humidity;BME280_pressure;Samples;Min_cycle;Max_cycle;Signal;HPM_P1;HPM_P2
2021/05/08 00:01:30;;;;;;;15.70;7.60;;;;;;;7.65;63.99;101301.69;5117430;28;20186;-63
2021/05/08 00:03:55;;;;;;;10.40;6.70;;;;;;;7.45;63.75;101307.97;5118939;28;20246;-64
2021/05/08 00:06:21;;;;;;;9.00;6.63;;;;;;;7.54;64.39;101303.06;5118393;28;20184;-63
2021/05/08 00:08:46;;;;;;;9.70;6.90;;;;;;;7.59;64.06;101311.88;5106506;28;20194;-64
2021/05/08 00:11:11;;;;;;;8.53;6.00;;;;;;;7.37;64.31;101311.22;5098464;28;20417;-64
2021/05/08 00:13:37;;;;;;;10.00;6.60;;;;;;;7.16;65.08;101305.34;5098012;28;20211;-64
2021/05/08 00:16:02;;;;;;;9.83;6.77;;;;;;;7.24;64.73;101309.06;5097852;28;20169;-64
2021/05/08 00:18:27;;;;;;;10.30;6.20;;;;;;;7.28;65.76;101308.31;5098282;28;20183;-63
2021/05/08 00:20:53;;;;;;;13.90;7.10;;;;;;;7.35;63.88;101312.00;5097842;28;20176;-62
2021/05/08 00:23:18;;;;;;;9.53;7.53;;;;;;;7.12;64.90;101308.63;5100246;28;20183;-64
2021/05/08 00:25:43;;;;;;;13.07;7.00;;;;;;;7.09;64.92;101314.63;5102038;28;20235;-64
2021/05/08 00:28:09;;;;;;;11.10;7.03;;;;;;;7.15;65.37;101308.75;5101879;28;20263;-65
2021/05/08 00:30:34;;;;;;;11.63;6.80;;;;;;;7.13;65.25;101305.22;5108060;28;20262;-64
2021/05/08 00:33:00;;;;;;;10.00;7.13;;;;;;;7.53;63.72;101302.16;5122758;28;20207;-63
2021/05/08 00:35:25;;;;;;;12.33;7.20;;;;;;;7.26;64.52;101299.59;5122197;27;20167;-63
2021/05/08 00:37:50;;;;;;;10.27;7.07;;;;;;;7.27;65.12;101298.78;5112600;28;20217;-63
2021/05/08 00:40:16;;;;;;;7.43;6.30;;;;;;;6.73;65.72;101302.16;5105427;28;20297;-64
2021/05/08 00:42:41;;;;;;;12.27;6.60;;;;;;;6.82;65.93;101305.06;5122062;28;20225;-64
2021/05/08 00:45:07;;;;;;;9.97;7.13;;;;;;;7.08;65.78;101302.47;5122555;27;20543;-64
2021/05/08 00:47:40;;;;;;;12.27;7.23;;;;;;;6.82;66.17;101299.00;5122200;28;20646;-63
2021/05/08 00:50:05;;;;;;;11.20;6.73;;;;;;;7.00;65.11;101294.44;5121977;28;20417;-63
2021/05/08 00:52:31;;;;;;;9.50;7.17;;;;;;;6.81;65.42;101290.34;5115074;28;20464;-63
2021/05/08 00:54:56;;;;;;;9.07;7.13;;;;;;;6.90;65.68;101292.34;5101544;28;20188;-63
2021/05/08 00:57:21;;;;;;;14.00;7.20;;;;;;;6.67;66.75;101289.00;5101326;28;20172;-64
2021/05/08 00:59:47;;;;;;;8.40;6.63;;;;;;;6.71;67.41;101291.75;5101824;28;20179;-63
2021/05/08 01:02:12;;;;;;;9.80;7.20;;;;;;;6.51;67.46;101292.78;5101225;28;20188;-63
2021/05/08 01:04:37;;;;;;;9.10;6.90;;;;;;;6.92;65.83;101301.09;5100601;28;20176;-63
2021/05/08 01:07:02;;;;;;;17.40;7.60;;;;;;;7.17;64.87;101294.09;5103836;28;20184;-64
2021/05/08 01:09:28;;;;;;;7.70;6.90;;;;;;;6.83;66.92;101293.00;5121738;28;20415;-63
2021/05/08 01:11:54;;;;;;;11.50;8.13;;;;;;;6.73;66.32;101284.91;5121398;28;20175;-64
2021/05/08 01:14:20;;;;;;;11.40;7.20;;;;;;;6.57;66.72;101291.25;5121274;28;20183;-64
2021/05/08 01:16:46;;;;;;;9.93;6.80;;;;;;;6.61;66.58;101293.97;5120733;28;20410;-64
2021/05/08 01:19:15;;;;;;;11.40;7.43;;;;;;;6.56;67.06;101296.38;5121481;28;20517;-63
2021/05/08 01:21:40;;;;;;;11.43;7.20;;;;;;;6.82;66.34;101306.78;5113501;28;20422;-63
2021/05/08 01:24:06;;;;;;;11.27;7.63;;;;;;;6.56;67.27;101301.56;5100792;28;20419;-64
2021/05/08 01:26:32;;;;;;;9.27;6.90;;;;;;;6.76;66.63;101299.66;5100100;28;20234;-63
2021/05/08 01:28:58;;;;;;;9.10;7.70;;;;;;;6.40;67.98;101301.03;5101344;28;20318;-64
2021/05/08 01:31:23;;;;;;;13.83;7.93;;;;;;;6.73;66.91;101297.84;5100641;28;20168;-63
2021/05/08 01:33:48;;;;;;;9.60;7.10;;;;;;;6.49;67.81;101304.78;5099902;28;20214;-63
2021/05/08 01:36:14;;;;;;;8.50;6.97;;;;;;;6.41;68.56;101307.09;5100826;28;20251;-64
2021/05/08 01:38:39;;;;;;;13.80;8.00;;;;;;;6.68;67.20;101312.34;5101739;28;20184;-63
2021/05/08 01:41:07;;;;;;;10.73;6.90;;;;;;;6.54;67.60;101308.44;5100481;28;20486;-63
2021/05/08 01:43:33;;;;;;;14.10;8.03;;;;;;;6.66;67.74;101307.97;5100892;28;20544;-63
2021/05/08 01:45:58;;;;;;;10.13;7.90;;;;;;;6.63;67.54;101308.75;5100397;28;20418;-63
2021/05/08 01:48:24;;;;;;;16.67;8.87;;;;;;;6.23;68.72;101317.69;5100425;28;20180;-64
2021/05/08 01:50:49;;;;;;;12.77;8.03;;;;;;;6.39;68.53;101317.41;5100818;28;20188;-64
2021/05/08 01:53:15;;;;;;;9.17;7.77;;;;;;;6.46;68.63;101315.91;5117303;28;20465;-64
2021/05/08 01:55:40;;;;;;;9.17;7.67;;;;;;;6.83;67.02;101305.94;5120780;28;20164;-64
2021/05/08 01:58:05;;;;;;;10.27;7.40;;;;;;;6.46;68.25;101309.88;5121306;28;20227;-64
2021/05/08 02:00:35;;;;;;;10.27;8.00;;;;;;;6.49;68.35;101310.84;5120617;28;20199;-63
2021/05/08 02:03:01;;;;;;;10.43;8.27;;;;;;;6.34;68.45;101312.88;5119629;28;20167;-64
2021/05/08 02:05:28;;;;;;;11.27;7.50;;;;;;;6.22;68.44;101310.72;5112018;28;20440;-63
2021/05/08 02:07:54;;;;;;;10.83;7.70;;;;;;;6.31;68.57;101307.59;5100008;28;20535;-63
2021/05/08 02:10:20;;;;;;;11.13;8.07;;;;;;;6.38;68.24;101309.59;5099825;28;20422;-64
2021/05/08 02:12:45;;;;;;;10.20;7.67;;;;;;;6.56;68.22;101311.94;5099814;28;20490;-63
2021/05/08 02:15:13;;;;;;;10.67;8.60;;;;;;;6.65;67.03;101311.38;5099743;28;20417;-64
2021/05/08 02:17:39;;;;;;;13.43;8.70;;;;;;;6.71;66.68;101307.31;5099745;28;20425;-63
2021/05/08 02:20:06;;;;;;;12.17;8.20;;;;;;;6.79;66.89;101315.31;5099993;28;20421;-65
2021/05/08 02:22:31;;;;;;;12.53;9.20;;;;;;;6.11;69.56;101322.41;5099686;28;20426;-65
2021/05/08 02:24:56;;;;;;;9.73;8.07;;;;;;;6.34;68.52;101311.16;5099402;28;20477;-65
2021/05/08 02:27:22;;;;;;;13.37;8.27;;;;;;;6.16;69.51;101305.34;5099866;28;20168;-63
2021/05/08 02:29:47;;;;;;;11.83;8.30;;;;;;;6.13;68.96;101315.56;5100239;28;20180;-63
2021/05/08 02:32:12;;;;;;;13.13;8.77;;;;;;;6.02;69.66;101317.75;5099365;28;20215;-64
2021/05/08 02:34:37;;;;;;;15.07;8.10;;;;;;;6.24;68.43;101319.44;5100097;28;20521;-64
2021/05/08 02:37:03;;;;;;;12.83;8.20;;;;;;;5.94;68.68;101316.53;5115254;28;20224;-64
2021/05/08 02:39:28;;;;;;;11.50;8.70;;;;;;;6.15;68.46;101319.09;5120091;28;20186;-63
2021/05/08 02:41:53;;;;;;;10.70;8.60;;;;;;;6.17;68.49;101320.94;5120116;28;20199;-63
2021/05/08 02:44:19;;;;;;;13.57;8.80;;;;;;;6.21;68.24;101316.72;5119898;28;20525;-63
2021/05/08 02:46:45;;;;;;;11.80;9.13;;;;;;;6.26;68.00;101327.25;5119639;28;20175;-63
2021/05/08 02:49:10;;;;;;;10.67;7.87;;;;;;;5.98;68.53;101316.78;5120095;28;20167;-63
2021/05/08 02:51:35;;;;;;;19.70;10.03;;;;;;;6.21;68.66;101324.50;5106651;28;20458;-63
2021/05/08 02:54:01;;;;;;;11.23;8.40;;;;;;;6.18;67.92;101320.09;5098459;28;20207;-63
2021/05/08 02:56:26;;;;;;;14.43;7.90;;;;;;;5.92;69.07;101321.66;5099745;28;20466;-63
2021/05/08 02:58:51;;;;;;;12.27;8.50;;;;;;;6.05;68.52;101320.47;5099154;28;20175;-63
2021/05/08 03:01:17;;;;;;;15.33;8.40;;;;;;;6.07;68.85;101327.47;5099005;28;20443;-63
2021/05/08 03:03:42;;;;;;;9.97;8.70;;;;;;;6.36;68.17;101322.47;5099660;28;20172;-63
2021/05/08 03:06:07;;;;;;;9.27;7.50;;;;;;;6.07;68.02;101330.06;5099138;28;20191;-63
2021/05/08 03:08:33;;;;;;;11.43;7.80;;;;;;;5.98;69.15;101324.53;5100028;28;20194;-64
2021/05/08 03:10:58;;;;;;;16.00;8.90;;;;;;;6.00;68.55;101324.59;5099340;28;20172;-63
2021/05/08 03:13:23;;;;;;;10.80;8.13;;;;;;;6.39;67.71;101313.94;5098720;28;20204;-64
2021/05/08 03:15:48;;;;;;;14.60;9.00;;;;;;;5.70;69.26;101315.66;5098764;28;20204;-65
2021/05/08 03:18:14;;;;;;;14.90;9.17;;;;;;;6.19;68.41;101316.66;5099622;28;20254;-64
2021/05/08 03:20:39;;;;;;;9.50;8.17;;;;;;;5.94;69.34;101319.13;5102872;28;20168;-64
2021/05/08 03:23:04;;;;;;;11.10;8.93;;;;;;;5.94;68.61;101314.88;5119236;28;20544;-64
2021/05/08 03:25:30;;;;;;;12.47;8.33;;;;;;;5.87;69.18;101318.91;5118967;28;20219;-64
2021/05/08 03:27:55;;;;;;;12.63;8.83;;;;;;;5.85;69.69;101317.09;5119119;28;20179;-64
2021/05/08 03:30:20;;;;;;;9.30;8.27;;;;;;;6.06;68.79;101324.81;5119267;28;20167;-64
2021/05/08 03:32:46;;;;;;;11.93;8.30;;;;;;;6.29;68.14;101320.50;5118807;28;20226;-64
2021/05/08 03:35:11;;;;;;;14.77;9.50;;;;;;;6.13;67.98;101316.47;5110255;28;20187;-64
2021/05/08 03:37:36;;;;;;;14.20;8.63;;;;;;;6.26;67.73;101316.91;5099014;28;20255;-64
2021/05/08 03:40:03;;;;;;;12.07;8.23;;;;;;;5.95;68.62;101319.19;5098756;28;20191;-64
2021/05/08 03:42:28;;;;;;;20.67;14.40;;;;;;;6.07;68.40;101321.41;5098407;28;20221;-64
2021/05/08 03:44:53;;;;;;;13.03;9.70;;;;;;;6.19;68.85;101311.50;5118504;28;20520;-63
2021/05/08 03:47:19;;;;;;;17.53;10.57;;;;;;;6.28;67.99;101303.19;5111081;28;20231;-64
2021/05/08 03:49:44;;;;;;;10.33;8.80;;;;;;;6.01;68.04;101314.28;5114701;28;20213;-64
2021/05/08 03:52:09;;;;;;;17.43;11.57;;;;;;;6.12;67.77;101319.00;5118810;28;20236;-63
2021/05/08 03:54:36;;;;;;;18.10;14.03;;;;;;;6.39;67.92;101320.00;5112397;28;20481;-63
2021/05/08 03:57:02;;;;;;;14.07;9.40;;;;;;;6.35;67.26;101323.28;5100868;28;20213;-64
2021/05/08 03:59:27;;;;;;;35.07;19.53;;;;;;;6.25;68.30;101323.78;5105230;28;20421;-64
2021/05/08 04:01:53;;;;;;;31.07;17.90;;;;;;;6.52;66.99;101315.25;5139043;27;20171;-64
2021/05/08 04:04:18;;;;;;;16.70;12.20;;;;;;;6.23;67.73;101322.84;5129207;27;20176;-63
2021/05/08 04:06:43;;;;;;;20.50;12.73;;;;;;;6.52;66.71;101323.91;5098383;28;20245;-64
2021/05/08 04:09:10;;;;;;;10.93;8.70;;;;;;;6.44;66.77;101327.03;5102354;28;20171;-64
2021/05/08 04:11:35;;;;;;;16.53;9.60;;;;;;;6.43;66.89;101320.09;5109896;28;20195;-64
2021/05/08 04:14:01;;;;;;;14.90;9.13;;;;;;;7.26;64.67;101328.13;5105090;28;20473;-63
2021/05/08 04:16:26;;;;;;;15.63;9.10;;;;;;;7.73;62.11;101327.88;5098101;28;20476;-63
2021/05/08 04:18:52;;;;;;;18.43;10.57;;;;;;;8.76;59.05;101327.38;5098261;28;20196;-63
2021/05/08 04:21:17;;;;;;;23.83;11.93;;;;;;;9.18;57.29;101323.22;5108533;28;20188;-64
2021/05/08 04:23:43;;;;;;;14.33;7.40;;;;;;;9.58;56.12;101324.19;5105862;28;20205;-64
2021/05/08 04:26:08;;;;;;;12.57;7.57;;;;;;;10.04;55.22;101320.00;5118240;28;20231;-64
2021/05/08 04:28:33;;;;;;;12.93;6.83;;;;;;;10.32;53.69;101311.84;5117931;28;20228;-64
2021/05/08 04:30:59;;;;;;;16.50;7.63;;;;;;;10.48;53.59;101326.09;5103700;28;20191;-64
2021/05/08 04:33:24;;;;;;;14.23;7.70;;;;;;;10.61;52.78;101323.75;5105779;28;20207;-63
2021/05/08 04:35:49;;;;;;;12.40;7.60;;;;;;;11.23;51.20;101319.63;5105462;28;20204;-63
2021/05/08 04:38:15;;;;;;;9.77;6.57;;;;;;;10.86;52.20;101323.31;5108653;28;20198;-63
2021/05/08 04:40:41;;;;;;;11.00;7.37;;;;;;;10.91;51.32;101325.16;5102634;28;20238;-64
2021/05/08 04:43:06;;;;;;;12.87;7.07;;;;;;;11.12;52.48;101327.28;5097658;28;20174;-64
2021/05/08 04:45:32;;;;;;;9.20;6.30;;;;;;;11.19;52.61;101327.34;5101113;28;20436;-64
2021/05/08 04:47:57;;;;;;;8.80;7.67;;;;;;;11.19;50.83;101336.09;5098018;28;20270;-64
2021/05/08 04:50:23;;;;;;;12.13;6.67;;;;;;;12.18;48.21;101334.94;5097681;28;20207;-64
2021/05/08 04:52:49;;;;;;;10.00;6.73;;;;;;;12.12;48.71;101340.97;5116624;28;20264;-64
2021/05/08 04:55:15;;;;;;;9.80;6.30;;;;;;;11.96;48.33;101334.66;5112037;28;20687;-65
2021/05/08 04:57:41;;;;;;;10.43;6.73;;;;;;;11.90;48.34;101334.53;5112302;28;20413;-63
2021/05/08 05:00:07;;;;;;;8.97;6.90;;;;;;;12.42;46.98;101333.47;5118240;28;20172;-64
2021/05/08 05:02:32;;;;;;;7.03;6.33;;;;;;;12.59;46.82;101333.66;5117992;28;20552;-64
2021/05/08 05:04:58;;;;;;;7.63;6.50;;;;;;;12.41;46.82;101331.72;5102306;28;20411;-64
2021/05/08 05:07:23;;;;;;;6.73;6.03;;;;;;;12.52;46.46;101337.09;5097827;28;20225;-64
2021/05/08 05:09:48;;;;;;;7.37;6.63;;;;;;;12.43;46.76;101337.84;5100302;28;20447;-64
2021/05/08 05:12:13;;;;;;;12.10;7.40;;;;;;;12.20;47.45;101342.78;5101667;28;20295;-64
2021/05/08 05:14:40;;;;;;;10.53;6.93;;;;;;;13.24;45.67;101336.91;5115139;28;20224;-63
2021/05/08 05:17:05;;;;;;;8.27;6.30;;;;;;;13.69;43.59;101332.88;5121494;28;20168;-64
2021/05/08 05:19:30;;;;;;;6.93;6.23;;;;;;;13.97;42.74;101331.28;5119814;28;20421;-64
2021/05/08 05:21:56;;;;;;;8.20;6.90;;;;;;;13.51;43.78;101338.88;5121469;28;20191;-63
2021/05/08 05:24:21;;;;;;;8.67;6.53;;;;;;;14.03;43.16;101333.09;5121186;28;20227;-63
2021/05/08 05:26:46;;;;;;;9.60;6.60;;;;;;;13.81;43.59;101340.84;5121706;28;20171;-63
2021/05/08 05:29:12;;;;;;;8.43;6.40;;;;;;;13.88;43.38;101340.84;5121372;27;20181;-64
2021/05/08 05:31:38;;;;;;;10.33;7.30;;;;;;;14.15;42.29;101345.34;5106990;28;20550;-63
2021/05/08 05:34:04;;;;;;;8.10;6.60;;;;;;;13.16;44.20;101355.16;5102546;28;20260;-63
2021/05/08 05:36:31;;;;;;;8.87;6.60;;;;;;;12.32;46.92;101353.41;5120145;28;20716;-64
2021/05/08 05:38:56;;;;;;;9.87;7.30;;;;;;;13.63;44.30;101348.56;5116110;28;20438;-63
2021/05/08 05:41:21;;;;;;;8.10;6.83;;;;;;;14.55;42.42;101350.75;5100787;28;20432;-64
2021/05/08 05:43:47;;;;;;;7.53;6.47;;;;;;;14.92;41.26;101342.13;5100722;28;20173;-64
2021/05/08 05:46:13;;;;;;;7.70;6.50;;;;;;;15.03;41.42;101344.75;5100464;28;20233;-63
2021/05/08 05:48:38;;;;;;;7.93;6.53;;;;;;;15.99;40.10;101345.56;5100906;28;20188;-64
2021/05/08 05:51:04;;;;;;;8.53;6.23;;;;;;;15.46;40.24;101353.50;5100253;28;20419;-64
2021/05/08 05:53:29;;;;;;;7.23;6.07;;;;;;;15.42;40.06;101351.75;5100042;28;20292;-64
2021/05/08 05:55:55;;;;;;;6.97;5.97;;;;;;;15.46;39.27;101350.03;5101051;28;20473;-64
2021/05/08 05:58:20;;;;;;;7.37;6.13;;;;;;;16.37;37.86;101348.94;5100603;28;20184;-64
2021/05/08 06:00:45;;;;;;;9.13;6.10;;;;;;;15.94;39.10;101350.84;5100198;28;20193;-65
2021/05/08 06:03:11;;;;;;;8.70;6.80;;;;;;;16.24;38.53;101338.47;5100481;28;20195;-65
2021/05/08 06:05:36;;;;;;;9.70;7.27;;;;;;;17.00;36.77;101345.97;5100689;28;20196;-64
2021/05/08 06:08:02;;;;;;;7.83;5.23;;;;;;;19.46;39.66;101337.69;5100060;28;20176;-64
2021/05/08 06:10:27;;;;;;;5.90;5.30;;;;;;;19.48;36.45;101335.88;5100741;28;20187;-65
2021/05/08 06:12:52;;;;;;;6.70;5.70;;;;;;;19.25;33.54;101336.28;5100007;28;20304;-66
2021/05/08 06:15:18;;;;;;;7.03;5.47;;;;;;;19.84;34.97;101334.34;5100079;28;20259;-65
2021/05/08 06:17:43;;;;;;;9.20;6.00;;;;;;;19.43;32.51;101341.25;5100397;28;20183;-64
2021/05/08 06:20:09;;;;;;;8.43;5.37;;;;;;;18.15;35.01;101348.41;5101963;27;20176;-63
2021/05/08 06:22:34;;;;;;;6.17;4.90;;;;;;;21.45;31.99;101348.44;5106838;28;20275;-63
2021/05/08 06:25:00;;;;;;;7.03;5.63;;;;;;;21.48;31.37;101345.69;5105700;28;20626;-64
2021/05/08 06:27:26;;;;;;;8.33;5.80;;;;;;;20.11;33.42;101349.72;5099136;28;20429;-65
2021/05/08 06:29:51;;;;;;;6.93;6.07;;;;;;;21.40;30.52;101350.34;5099190;28;20199;-65
2021/05/08 06:32:17;;;;;;;5.60;4.97;;;;;;;21.08;31.27;101349.34;5099265;28;20462;-63
2021/05/08 06:34:42;;;;;;;6.63;5.37;;;;;;;22.44;29.42;101345.72;5099455;28;20518;-65
2021/05/08 06:37:08;;;;;;;9.43;6.80;;;;;;;19.02;32.75;101363.94;5099942;28;20608;-64
2021/05/08 06:39:34;;;;;;;8.33;6.10;;;;;;;17.50;36.27;101372.78;5099772;28;20568;-64
2021/05/08 06:41:59;;;;;;;6.53;5.33;;;;;;;18.20;35.73;101372.97;5099202;28;20176;-64
2021/05/08 06:44:25;;;;;;;7.00;5.40;;;;;;;18.51;36.60;101364.69;5100045;28;20168;-64
2021/05/08 06:46:51;;;;;;;8.17;7.10;;;;;;;;;;5099075;28;20236;-65
2021/05/08 06:49:16;;;;;;;9.50;6.70;;;;;;;22.67;28.65;101353.00;5099275;28;20505;-63
2021/05/08 06:51:42;;;;;;;10.87;6.73;;;;;;;19.02;32.70;101362.22;5099458;28;20410;-63
2021/05/08 06:54:07;;;;;;;7.90;6.43;;;;;;;19.86;32.42;101360.78;5099072;28;20577;-62
2021/05/08 06:56:32;;;;;;;9.37;5.80;;;;;;;20.02;31.92;101364.00;5099122;28;20176;-62
2021/05/08 06:58:58;;;;;;;8.63;5.63;;;;;;;18.84;34.07;101363.31;5099571;28;20168;-61
2021/05/08 07:01:23;;;;;;;7.37;5.20;;;;;;;20.16;31.70;101369.00;5098961;28;20497;-61
2021/05/08 07:03:49;;;;;;;8.53;5.70;;;;;;;20.41;31.54;101360.56;5099223;28;20256;-60
2021/05/08 07:06:14;;;;;;;11.20;5.77;;;;;;;19.93;32.19;101361.53;5099471;28;20251;-60
2021/05/08 07:08:39;;;;;;;8.40;5.40;;;;;;;20.12;31.58;101370.88;5099105;28;20200;-60
2021/05/08 07:11:05;;;;;;;7.60;5.50;;;;;;;19.93;32.13;101361.53;5098742;28;20168;-60
2021/05/08 07:13:30;;;;;;;8.53;4.97;;;;;;;21.82;30.75;101366.06;5099043;28;20306;-60
2021/05/08 07:15:56;;;;;;;9.67;5.70;;;;;;;22.26;28.71;101363.94;5098654;28;20180;-69
2021/05/08 07:18:22;;;;;;;8.47;6.27;;;;;;;19.72;32.11;101370.72;5098654;28;20172;-68
2021/05/08 07:20:48;;;;;;;7.60;5.90;;;;;;;19.42;32.48;101365.94;5098853;28;20414;-68
2021/05/08 07:23:13;;;;;;;6.47;5.87;;;;;;;20.05;31.81;101365.72;5098473;28;20425;-67
2021/05/08 07:25:38;;;;;;;9.23;6.37;;;;;;;19.76;31.02;101365.34;5098565;28;20224;-67
2021/05/08 07:28:15;;;;;;;6.73;6.20;;;;;;;19.31;32.85;101368.78;5099013;28;20172;-67
2021/05/08 07:30:42;;;;;;;9.17;6.60;;;;;;;19.04;32.89;101364.81;5098606;28;20262;-67
2021/05/08 07:33:09;;;;;;;5.90;5.30;;;;;;;19.10;33.05;101370.00;5097527;28;20462;-67
2021/05/08 07:35:35;;;;;;;7.53;5.77;;;;;;;18.54;33.71;101369.00;5098474;28;20424;-68
2021/05/08 07:38:00;;;;;;;7.97;6.10;;;;;;;20.36;31.25;101373.91;5098587;28;20485;-66
2021/05/08 07:40:26;;;;;;;6.00;5.37;;;;;;;20.22;30.77;101362.75;5098674;28;20179;-67
2021/05/08 07:42:51;;;;;;;8.03;5.70;;;;;;;19.62;31.88;101362.97;5098226;28;20172;-67
2021/05/08 07:45:17;;;;;;;7.70;4.83;;;;;;;20.13;29.94;101363.78;5098533;28;20417;-66
2021/05/08 07:47:42;;;;;;;6.27;4.70;;;;;;;19.51;31.21;101357.88;5098929;28;20182;-67
2021/05/08 07:50:08;;;;;;;13.03;9.20;;;;;;;20.72;29.29;101359.94;5098335;28;20593;-67
2021/05/08 07:52:34;;;;;;;10.13;7.33;;;;;;;20.49;30.16;101361.28;5097975;28;20203;-67
2021/05/08 07:55:00;;;;;;;5.13;4.50;;;;;;;20.50;28.13;101355.94;5098559;28;20489;-67
2021/05/08 07:57:25;;;;;;;6.50;5.33;;;;;;;19.53;30.05;101350.75;5098153;28;20553;-68
2021/05/08 07:59:50;;;;;;;7.33;5.20;;;;;;;20.64;29.40;101355.63;5098244;28;20203;-68
2021/05/08 08:02:15;;;;;;;5.17;4.47;;;;;;;20.13;29.87;101353.19;5098503;28;20545;-67
2021/05/08 08:04:41;;;;;;;5.63;4.37;;;;;;;20.00;29.45;101347.28;5097887;28;20306;-68
2021/05/08 08:07:06;;;;;;;8.80;4.63;;;;;;;20.31;28.87;101336.94;5098077;28;20212;-71
2021/05/08 08:09:31;;;;;;;6.17;4.70;;;;;;;21.75;26.74;101337.94;5098657;28;20250;-68
2021/05/08 08:11:57;;;;;;;7.30;3.90;;;;;;;19.71;28.70;101343.38;5097872;28;20176;-67
2021/05/08 08:14:22;;;;;;;6.63;4.30;;;;;;;19.35;30.45;101343.16;5104497;28;20179;-67
2021/05/08 08:16:47;;;;;;;7.00;4.47;;;;;;;20.36;29.62;101334.19;5118345;28;20552;-68
2021/05/08 08:19:12;;;;;;;7.47;4.87;;;;;;;18.80;31.61;101335.19;5118123;28;20199;-67
2021/05/08 08:21:38;;;;;;;8.50;4.40;;;;;;;20.01;28.82;101335.78;5118006;28;20205;-67
2021/05/08 08:24:03;;;;;;;7.33;4.20;;;;;;;19.45;29.50;101334.16;5117962;28;20226;-68
2021/05/08 08:26:29;;;;;;;8.03;4.13;;;;;;;21.56;26.54;101326.97;5118381;28;20175;-68
2021/05/08 08:28:54;;;;;;;6.47;4.80;;;;;;;21.35;26.30;101331.88;5117948;28;20460;-68
2021/05/08 08:31:19;;;;;;;7.50;4.80;;;;;;;21.78;25.74;101336.06;5118418;28;20182;-70
2021/05/08 08:33:45;;;;;;;3.93;3.53;;;;;;;20.80;26.84;101339.44;5118042;28;20290;-71
2021/05/08 08:36:10;;;;;;;6.33;4.00;;;;;;;20.41;26.84;101347.34;5118280;28;20176;-70
2021/05/08 08:38:35;;;;;;;5.80;3.90;;;;;;;21.33;25.90;101339.00;5118520;28;20506;-71
2021/05/08 08:41:01;;;;;;;6.00;4.10;;;;;;;21.25;26.24;101341.84;5117968;28;20168;-71
2021/05/08 08:43:27;;;;;;;6.63;4.50;;;;;;;21.72;25.45;101333.59;5118666;28;20179;-71
2021/05/08 08:45:52;;;;;;;5.93;4.10;;;;;;;22.07;24.77;101331.72;5122512;28;20179;-70
2021/05/08 08:48:19;;;;;;;6.10;3.97;;;;;;;20.97;25.86;101341.66;5121278;28;20246;-69
2021/05/08 08:50:47;;;;;;;5.90;3.93;;;;;;;20.01;27.46;101349.91;5121675;28;20560;-68
2021/05/08 08:53:14;;;;;;;8.27;5.90;;;;;;;20.20;26.78;101341.56;5121309;28;20457;-69
2021/05/08 08:55:44;;;;;;;6.37;4.40;;;;;;;18.81;29.11;101344.00;5121811;28;20409;-68
2021/05/08 08:58:11;;;;;;;10.00;8.43;;;;;;;18.83;29.04;101336.91;5121187;28;20416;-67
2021/05/08 09:00:37;;;;;;;10.23;6.93;;;;;;;18.10;29.74;101337.88;5121881;28;20405;-67
2021/05/08 09:03:03;;;;;;;7.73;4.60;;;;;;;18.78;28.81;101337.00;5121459;28;20817;-69
2021/05/08 09:05:28;;;;;;;8.30;4.47;;;;;;;18.68;29.52;101332.72;5121574;28;20168;-68
2021/05/08 09:07:59;;;;;;;12.60;8.60;;;;;;;18.54;30.45;101334.69;5121798;28;20401;-68
2021/05/08 09:10:32;;;;;;;8.77;5.80;;;;;;;18.34;30.60;101336.72;5121480;28;20176;-68
2021/05/08 09:12:59;;;;;;;10.10;7.47;;;;;;;18.97;30.10;101332.34;5121182;28;20461;-68
2021/05/08 09:15:33;;;;;;;7.17;5.53;;;;;;;18.46;31.36;101332.19;5121323;28;20852;-70
2021/05/08 09:18:00;;;;;;;9.20;5.03;;;;;;;18.72;30.42;101334.44;5121236;28;20432;-70
2021/05/08 09:20:42;;;;;;;7.97;5.90;;;;;;;17.62;32.00;101335.75;5120435;28;20413;-69
2021/05/08 09:23:17;;;;;;;5.83;5.03;;;;;;;17.77;31.02;101342.63;5121060;28;20448;-69
2021/05/08 09:26:10;;;;;;;7.37;4.67;;;;;;;17.79;31.28;101334.69;5120895;28;20461;-68
2021/05/08 09:28:38;;;;;;;6.50;4.63;;;;;;;17.19;33.14;101338.78;5121093;27;20482;-67
2021/05/08 09:31:06;;;;;;;6.90;4.83;;;;;;;18.23;31.33;101327.19;5120965;28;20874;-67
2021/05/08 09:33:32;;;;;;;8.33;4.90;;;;;;;19.24;29.07;101323.97;5120875;28;20460;-66
2021/05/08 09:36:08;;;;;;;6.20;4.23;;;;;;;21.29;26.42;101306.38;5121363;28;20416;-68
2021/05/08 09:38:39;;;;;;;7.97;5.20;;;;;;;21.98;24.36;101294.81;5120149;28;20425;-68
2021/05/08 09:41:06;;;;;;;7.40;4.60;;;;;;;21.78;24.34;101301.56;5120580;28;20416;-68
2021/05/08 09:43:31;;;;;;;4.63;3.90;;;;;;;19.72;27.88;101304.59;5120818;28;20439;-68
2021/05/08 09:45:58;;;;;;;6.10;4.07;;;;;;;20.49;26.43;101293.28;5120733;28;20413;-67
2021/05/08 09:48:31;;;;;;;7.63;5.20;;;;;;;21.33;24.97;101285.97;5121198;28;20163;-66
2021/05/08 09:51:12;;;;;;;5.33;4.83;;;;;;;21.11;25.88;101293.63;5100105;28;20703;-68
2021/05/08 09:53:38;;;;;;;5.63;4.57;;;;;;;20.45;26.02;101285.44;5100180;28;20490;-68
2021/05/08 09:56:03;;;;;;;5.00;4.60;;;;;;;19.38;27.28;101289.38;5099167;28;20450;-66
2021/05/08 09:58:28;;;;;;;6.70;4.33;;;;;;;20.22;26.07;101283.31;5100311;28;20613;-67
2021/05/08 10:00:54;;;;;;;6.00;4.50;;;;;;;21.73;23.75;101279.63;5100311;28;20167;-67
2021/05/08 10:03:21;;;;;;;5.97;4.10;;;;;;;21.02;25.80;101284.09;5100060;28;20474;-67
2021/05/08 10:06:01;;;;;;;4.73;4.10;;;;;;;21.09;25.32;101276.88;5099997;28;20175;-67
2021/05/08 10:08:26;;;;;;;7.10;4.90;;;;;;;20.94;24.89;101279.00;5100052;28;20432;-67
2021/05/08 10:10:52;;;;;;;5.27;4.20;;;;;;;19.39;26.10;101270.84;5099960;28;20462;-67
2021/05/08 10:13:17;;;;;;;4.30;3.90;;;;;;;19.65;27.27;101280.03;5099758;28;20493;-67
2021/05/08 10:15:42;;;;;;;4.53;3.87;;;;;;;19.77;26.49;101277.16;5082112;28;20168;-67
2021/05/08 10:18:11;;;;;;;5.37;4.00;;;;;;;19.28;27.72;101278.06;5099693;28;20224;-67
2021/05/08 10:20:37;;;;;;;6.90;4.60;;;;;;;19.06;27.34;101269.66;5100276;28;20161;-68
2021/05/08 10:23:13;;;;;;;5.73;4.43;;;;;;;18.95;27.18;101269.84;5098761;28;20427;-66
2021/05/08 10:25:42;;;;;;;6.93;4.97;;;;;;;19.07;26.75;101272.25;5099485;28;20465;-66
2021/05/08 10:28:10;;;;;;;6.87;4.90;;;;;;;19.12;26.82;101277.47;5098806;28;20425;-66
2021/05/08 10:30:45;;;;;;;5.70;4.77;;;;;;;18.82;26.96;101267.38;5099592;28;20749;-66
2021/05/08 10:33:11;;;;;;;4.80;4.40;;;;;;;19.47;26.53;101266.28;5099125;28;20462;-70
2021/05/08 10:35:42;;;;;;;5.10;4.17;;;;;;;18.17;28.57;101273.59;5098924;28;20406;-70
2021/05/08 10:38:23;;;;;;;10.27;7.60;;;;;;;18.39;29.27;101262.75;5099762;28;20406;-70
2021/05/08 10:40:52;;;;;;;6.37;5.57;;;;;;;17.54;30.22;101260.28;5099340;28;20414;-69
2021/05/08 10:43:41;;;;;;;5.63;5.00;;;;;;;16.95;31.39;101266.09;5099389;28;20402;-70
2021/05/08 10:46:07;;;;;;;7.00;5.53;;;;;;;17.06;29.74;101263.38;5099263;28;20662;-70
2021/05/08 10:48:32;;;;;;;5.00;4.50;;;;;;;18.11;30.19;101264.91;5099288;28;20422;-70
2021/05/08 10:50:59;;;;;;;12.43;11.03;;;;;;;18.58;27.98;101258.06;5099027;28;20226;-69
2021/05/08 10:53:43;;;;;;;7.43;5.47;;;;;;;18.40;28.77;101250.41;5099191;28;20195;-68
2021/05/08 10:56:34;;;;;;;6.53;5.50;;;;;;;17.21;31.08;101259.72;5098448;28;20493;-67
2021/05/08 10:59:07;;;;;;;7.53;6.83;;;;;;;17.49;29.96;101255.03;5099292;28;20409;-67
2021/05/08 11:01:44;;;;;;;7.07;5.10;;;;;;;18.12;27.97;101251.69;5098913;28;20433;-66
2021/05/08 11:04:11;;;;;;;5.60;5.00;;;;;;;18.33;27.75;101244.34;5099054;28;20438;-66
2021/05/08 11:06:36;;;;;;;7.27;5.47;;;;;;;18.78;27.45;101244.53;5097637;28;20409;-67
2021/05/08 11:09:03;;;;;;;5.30;4.90;;;;;;;19.21;27.07;101236.78;5098908;28;20521;-67
2021/05/08 11:11:48;;;;;;;5.47;4.97;;;;;;;19.39;26.71;101239.09;5099350;28;20255;-69
2021/05/08 11:14:13;;;;;;;6.27;5.67;;;;;;;17.62;28.04;101234.69;5098721;28;20755;-68
2021/05/08 11:16:56;;;;;;;5.67;5.20;;;;;;;19.09;26.46;101225.56;5098623;28;20422;-67
2021/05/08 11:19:23;;;;;;;6.60;5.97;;;;;;;19.44;25.60;101231.94;5098655;28;20171;-67
2021/05/08 11:21:48;;;;;;;5.97;5.37;;;;;;;19.69;26.18;101224.38;5098074;28;20425;-67